sensor_id;sensor_type;location;lat;lon;timestamp;temperature;humidity
22956;DHT22;40888;48.148;11.526;2023-06-05T00:02:16;18.80;84.40
22956;DHT22;40888;48.148;11.526;2023-06-05T00:04:42;18.80;85.50
22956;DHT22;40888;48.148;11.526;2023-06-05T00:07:09;18.80;86.70
22956;DHT22;40888;48.148;11.526;2023-06-05T00:09:35;18.70;90.50
22956;DHT22;40888;48.148;11.526;2023-06-05T00:12:00;18.70;91.10
22956;DHT22;40888;48.148;11.526;2023-06-05T00:14:26;18.70;92.00
22956;DHT22;40888;48.148;11.526;2023-06-05T00:16:52;18.70;92.60
22956;DHT22;40888;48.148;11.526;2023-06-05T00:19:18;18.70;93.60
22956;DHT22;40888;48.148;11.526;2023-06-05T00:21:43;18.60;94.10
22956;DHT22;40888;48.148;11.526;2023-06-05T00:24:09;18.70;94.40
22956;DHT22;40888;48.148;11.526;2023-06-05T00:26:35;18.60;95.20
22956;DHT22;40888;48.148;11.526;2023-06-05T00:29:01;18.60;95.70
22956;DHT22;40888;48.148;11.526;2023-06-05T00:31:26;18.50;96.50
22956;DHT22;40888;48.148;11.526;2023-06-05T00:33:52;18.50;96.90
22956;DHT22;40888;48.148;11.526;2023-06-05T00:36:18;18.50;97.50
22956;DHT22;40888;48.148;11.526;2023-06-05T00:38:51;18.40;98.90
22956;DHT22;40888;48.148;11.526;2023-06-05T00:41:18;18.40;99.10
22956;DHT22;40888;48.148;11.526;2023-06-05T00:43:43;18.30;99.90
22956;DHT22;40888;48.148;11.526;2023-06-05T00:46:09;18.30;99.90
22956;DHT22;40888;48.148;11.526;2023-06-05T00:48:37;18.20;99.90
22956;DHT22;40888;48.148;11.526;2023-06-05T00:51:03;18.20;99.90
22956;DHT22;40888;48.148;11.526;2023-06-05T00:53:30;18.20;99.90
22956;DHT22;40888;48.148;11.526;2023-06-05T00:55:57;18.10;99.90
22956;DHT22;40888;48.148;11.526;2023-06-05T00:58:24;18.20;99.90
22956;DHT22;40888;48.148;11.526;2023-06-05T01:00:51;18.10;99.90
22956;DHT22;40888;48.148;11.526;2023-06-05T01:03:16;18.10;99.90
22956;DHT22;40888;48.148;11.526;2023-06-05T01:05:43;18.10;99.90
22956;DHT22;40888;48.148;11.526;2023-06-05T01:08:09;18.10;99.90
22956;DHT22;40888;48.148;11.526;2023-06-05T01:10:38;18.10;99.90
22956;DHT22;40888;48.148;11.526;2023-06-05T01:13:19;18.10;99.90
22956;DHT22;40888;48.148;11.526;2023-06-05T01:15:47;18.10;99.90
22956;DHT22;40888;48.148;11.526;2023-06-05T01:18:14;18.00;99.90
22956;DHT22;40888;48.148;11.526;2023-06-05T01:20:40;17.90;99.90
22956;DHT22;40888;48.148;11.526;2023-06-05T01:23:08;17.90;99.90
22956;DHT22;40888;48.148;11.526;2023-06-05T01:25:34;17.90;99.90
22956;DHT22;40888;48.148;11.526;2023-06-05T01:28:16;17.80;99.90
22956;DHT22;40888;48.148;11.526;2023-06-05T01:31:06;17.80;99.90
22956;DHT22;40888;48.148;11.526;2023-06-05T01:33:37;17.80;99.90
22956;DHT22;40888;48.148;11.526;2023-06-05T01:36:12;17.70;99.90
22956;DHT22;40888;48.148;11.526;2023-06-05T01:38:40;17.70;99.90
22956;DHT22;40888;48.148;11.526;2023-06-05T01:41:08;17.60;99.90
22956;DHT22;40888;48.148;11.526;2023-06-05T01:43:36;17.60;99.90
22956;DHT22;40888;48.148;11.526;2023-06-05T01:46:04;17.60;99.90
22956;DHT22;40888;48.148;11.526;2023-06-05T01:48:33;17.60;99.90
22956;DHT22;40888;48.148;11.526;2023-06-05T01:51:00;17.60;99.90
22956;DHT22;40888;48.148;11.526;2023-06-05T01:53:28;17.50;99.90
22956;DHT22;40888;48.148;11.526;2023-06-05T01:55:55;17.50;99.90
22956;DHT22;40888;48.148;11.526;2023-06-05T01:58:23;17.30;99.90
22956;DHT22;40888;48.148;11.526;2023-06-05T02:00:49;17.30;99.90
22956;DHT22;40888;48.148;11.526;2023-06-05T02:03:15;17.20;99.90
22956;DHT22;40888;48.148;11.526;2023-06-05T02:05:44;17.10;99.90
22956;DHT22;40888;48.148;11.526;2023-06-05T02:08:10;17.10;99.90
22956;DHT22;40888;48.148;11.526;2023-06-05T02:10:36;17.10;99.90
22956;DHT22;40888;48.148;11.526;2023-06-05T02:13:10;17.10;99.90
22956;DHT22;40888;48.148;11.526;2023-06-05T02:15:36;17.20;99.90
22956;DHT22;40888;48.148;11.526;2023-06-05T02:18:02;17.20;99.90
22956;DHT22;40888;48.148;11.526;2023-06-05T02:20:30;17.10;99.90
22956;DHT22;40888;48.148;11.526;2023-06-05T02:22:56;17.10;99.90
22956;DHT22;40888;48.148;11.526;2023-06-05T02:25:23;17.10;99.90
22956;DHT22;40888;48.148;11.526;2023-06-05T02:27:53;17.10;99.90
22956;DHT22;40888;48.148;11.526;2023-06-05T02:30:19;17.10;99.90
22956;DHT22;40888;48.148;11.526;2023-06-05T02:32:46;17.10;99.90
22956;DHT22;40888;48.148;11.526;2023-06-05T02:35:13;17.20;99.90
22956;DHT22;40888;48.148;11.526;2023-06-05T02:37:39;17.20;99.90
22956;DHT22;40888;48.148;11.526;2023-06-05T02:40:13;17.30;99.90
22956;DHT22;40888;48.148;11.526;2023-06-05T02:42:39;17.30;99.90
22956;DHT22;40888;48.148;11.526;2023-06-05T02:45:07;17.30;99.90
22956;DHT22;40888;48.148;11.526;2023-06-05T02:47:33;17.30;99.90
22956;DHT22;40888;48.148;11.526;2023-06-05T02:49:59;17.30;99.90
22956;DHT22;40888;48.148;11.526;2023-06-05T02:52:25;17.30;99.90
22956;DHT22;40888;48.148;11.526;2023-06-05T02:54:51;17.30;99.90
22956;DHT22;40888;48.148;11.526;2023-06-05T02:57:17;17.40;99.90
22956;DHT22;40888;48.148;11.526;2023-06-05T02:59:43;17.40;99.90
22956;DHT22;40888;48.148;11.526;2023-06-05T03:02:10;17.40;99.90
22956;DHT22;40888;48.148;11.526;2023-06-05T03:04:36;17.40;99.90
22956;DHT22;40888;48.148;11.526;2023-06-05T03:07:05;17.50;99.90
22956;DHT22;40888;48.148;11.526;2023-06-05T03:09:31;17.40;99.90
22956;DHT22;40888;48.148;11.526;2023-06-05T03:11:57;17.40;99.90
22956;DHT22;40888;48.148;11.526;2023-06-05T03:14:24;17.30;99.90
22956;DHT22;40888;48.148;11.526;2023-06-05T03:16:50;17.30;99.90
22956;DHT22;40888;48.148;11.526;2023-06-05T03:19:16;17.30;99.90
22956;DHT22;40888;48.148;11.526;2023-06-05T03:21:42;17.30;99.90
22956;DHT22;40888;48.148;11.526;2023-06-05T03:24:10;17.20;99.90
22956;DHT22;40888;48.148;11.526;2023-06-05T03:26:40;17.20;99.90
22956;DHT22;40888;48.148;11.526;2023-06-05T03:29:07;17.20;99.90
22956;DHT22;40888;48.148;11.526;2023-06-05T03:31:33;17.10;99.90
22956;DHT22;40888;48.148;11.526;2023-06-05T03:33:59;17.10;99.90
22956;DHT22;40888;48.148;11.526;2023-06-05T03:36:26;17.10;99.90
22956;DHT22;40888;48.148;11.526;2023-06-05T03:38:54;17.10;99.90
22956;DHT22;40888;48.148;11.526;2023-06-05T03:41:20;17.00;99.90
22956;DHT22;40888;48.148;11.526;2023-06-05T03:43:47;17.00;99.90
22956;DHT22;40888;48.148;11.526;2023-06-05T03:46:12;17.00;99.90
22956;DHT22;40888;48.148;11.526;2023-06-05T03:48:47;17.00;99.90
22956;DHT22;40888;48.148;11.526;2023-06-05T03:51:14;17.00;99.90
22956;DHT22;40888;48.148;11.526;2023-06-05T03:53:44;17.00;99.90
22956;DHT22;40888;48.148;11.526;2023-06-05T03:56:10;16.90;99.90
22956;DHT22;40888;48.148;11.526;2023-06-05T03:58:37;16.90;99.90
22956;DHT22;40888;48.148;11.526;2023-06-05T04:01:07;16.90;99.90
22956;DHT22;40888;48.148;11.526;2023-06-05T04:03:32;16.90;99.90
22956;DHT22;40888;48.148;11.526;2023-06-05T04:06:03;16.90;99.90
22956;DHT22;40888;48.148;11.526;2023-06-05T04:08:29;16.90;99.90
22956;DHT22;40888;48.148;11.526;2023-06-05T04:10:55;16.90;99.90
22956;DHT22;40888;48.148;11.526;2023-06-05T04:13:21;16.90;99.90
22956;DHT22;40888;48.148;11.526;2023-06-05T04:15:47;16.90;99.90
22956;DHT22;40888;48.148;11.526;2023-06-05T04:18:14;16.90;99.90
22956;DHT22;40888;48.148;11.526;2023-06-05T04:20:40;17.00;99.90
22956;DHT22;40888;48.148;11.526;2023-06-05T04:23:06;16.90;99.90
22956;DHT22;40888;48.148;11.526;2023-06-05T04:25:31;16.90;99.90
22956;DHT22;40888;48.148;11.526;2023-06-05T04:27:57;16.90;99.90
22956;DHT22;40888;48.148;11.526;2023-06-05T04:30:23;16.80;99.90
22956;DHT22;40888;48.148;11.526;2023-06-05T04:32:50;16.80;99.90
22956;DHT22;40888;48.148;11.526;2023-06-05T04:35:20;16.80;99.90
22956;DHT22;40888;48.148;11.526;2023-06-05T04:37:47;16.70;99.90
22956;DHT22;40888;48.148;11.526;2023-06-05T04:40:15;16.70;99.90
22956;DHT22;40888;48.148;11.526;2023-06-05T04:42:41;16.70;99.90
22956;DHT22;40888;48.148;11.526;2023-06-05T04:45:08;16.70;99.90
22956;DHT22;40888;48.148;11.526;2023-06-05T04:47:34;16.60;99.90
22956;DHT22;40888;48.148;11.526;2023-06-05T04:50:01;16.70;99.90
22956;DHT22;40888;48.148;11.526;2023-06-05T04:52:30;16.70;99.90
22956;DHT22;40888;48.148;11.526;2023-06-05T04:54:56;16.70;99.90
22956;DHT22;40888;48.148;11.526;2023-06-05T04:57:24;16.70;99.90
22956;DHT22;40888;48.148;11.526;2023-06-05T04:59:51;16.80;99.90
22956;DHT22;40888;48.148;11.526;2023-06-05T05:02:17;16.80;99.90
22956;DHT22;40888;48.148;11.526;2023-06-05T05:04:43;16.80;99.90
22956;DHT22;40888;48.148;11.526;2023-06-05T05:07:09;16.80;99.90
22956;DHT22;40888;48.148;11.526;2023-06-05T05:09:41;16.80;99.90
22956;DHT22;40888;48.148;11.526;2023-06-05T05:12:07;16.80;99.90
22956;DHT22;40888;48.148;11.526;2023-06-05T05:14:35;16.80;99.90
22956;DHT22;40888;48.148;11.526;2023-06-05T05:17:02;16.90;99.90
22956;DHT22;40888;48.148;11.526;2023-06-05T05:19:28;16.90;99.90
22956;DHT22;40888;48.148;11.526;2023-06-05T05:21:54;16.90;99.90
22956;DHT22;40888;48.148;11.526;2023-06-05T05:24:20;16.90;99.90
22956;DHT22;40888;48.148;11.526;2023-06-05T05:26:46;17.00;99.90
22956;DHT22;40888;48.148;11.526;2023-06-05T05:29:13;17.00;99.90
22956;DHT22;40888;48.148;11.526;2023-06-05T05:31:39;17.10;99.90
22956;DHT22;40888;48.148;11.526;2023-06-05T05:34:05;17.10;99.90
22956;DHT22;40888;48.148;11.526;2023-06-05T05:36:30;17.10;99.90
22956;DHT22;40888;48.148;11.526;2023-06-05T05:39:00;17.20;99.90
22956;DHT22;40888;48.148;11.526;2023-06-05T05:41:26;17.20;99.90
22956;DHT22;40888;48.148;11.526;2023-06-05T05:43:52;17.20;99.90
22956;DHT22;40888;48.148;11.526;2023-06-05T05:46:18;17.30;99.90
22956;DHT22;40888;48.148;11.526;2023-06-05T05:48:44;17.20;99.90
22956;DHT22;40888;48.148;11.526;2023-06-05T05:51:10;17.30;99.90
22956;DHT22;40888;48.148;11.526;2023-06-05T05:53:35;17.30;99.90
22956;DHT22;40888;48.148;11.526;2023-06-05T05:56:01;17.30;99.90
22956;DHT22;40888;48.148;11.526;2023-06-05T05:58:29;17.30;99.90
22956;DHT22;40888;48.148;11.526;2023-06-05T06:00:55;17.30;99.90
22956;DHT22;40888;48.148;11.526;2023-06-05T06:03:21;17.30;99.90
22956;DHT22;40888;48.148;11.526;2023-06-05T06:05:47;17.30;99.90
22956;DHT22;40888;48.148;11.526;2023-06-05T06:08:13;17.30;99.90
22956;DHT22;40888;48.148;11.526;2023-06-05T06:10:40;17.30;99.90
22956;DHT22;40888;48.148;11.526;2023-06-05T06:13:06;17.40;99.90
22956;DHT22;40888;48.148;11.526;2023-06-05T06:15:32;17.40;99.90
22956;DHT22;40888;48.148;11.526;2023-06-05T06:17:58;17.50;99.90
22956;DHT22;40888;48.148;11.526;2023-06-05T06:20:28;17.50;99.90
22956;DHT22;40888;48.148;11.526;2023-06-05T06:22:54;17.40;99.90
22956;DHT22;40888;48.148;11.526;2023-06-05T06:25:20;17.50;99.90
22956;DHT22;40888;48.148;11.526;2023-06-05T06:27:47;17.60;99.90
22956;DHT22;40888;48.148;11.526;2023-06-05T06:30:19;17.60;99.90
22956;DHT22;40888;48.148;11.526;2023-06-05T06:32:45;17.60;99.90
22956;DHT22;40888;48.148;11.526;2023-06-05T06:35:11;17.50;99.90
22956;DHT22;40888;48.148;11.526;2023-06-05T06:37:40;17.60;99.90
22956;DHT22;40888;48.148;11.526;2023-06-05T06:40:06;17.60;99.90
22956;DHT22;40888;48.148;11.526;2023-06-05T06:42:37;17.70;99.90
22956;DHT22;40888;48.148;11.526;2023-06-05T06:45:03;17.70;99.90
22956;DHT22;40888;48.148;11.526;2023-06-05T06:47:30;17.60;99.90
22956;DHT22;40888;48.148;11.526;2023-06-05T06:49:56;17.70;99.90
22956;DHT22;40888;48.148;11.526;2023-06-05T06:52:22;17.70;99.90
22956;DHT22;40888;48.148;11.526;2023-06-05T06:54:49;17.80;99.90
22956;DHT22;40888;48.148;11.526;2023-06-05T06:57:15;17.90;99.90
22956;DHT22;40888;48.148;11.526;2023-06-05T06:59:41;17.80;99.90
22956;DHT22;40888;48.148;11.526;2023-06-05T07:02:14;17.90;99.90
22956;DHT22;40888;48.148;11.526;2023-06-05T07:04:41;17.90;99.90
22956;DHT22;40888;48.148;11.526;2023-06-05T07:07:13;17.90;99.90
22956;DHT22;40888;48.148;11.526;2023-06-05T07:09:43;18.00;99.90
22956;DHT22;40888;48.148;11.526;2023-06-05T07:12:11;18.10;99.90
22956;DHT22;40888;48.148;11.526;2023-06-05T07:14:38;18.10;99.90
22956;DHT22;40888;48.148;11.526;2023-06-05T07:17:04;18.30;99.90
22956;DHT22;40888;48.148;11.526;2023-06-05T07:19:30;18.40;99.90
22956;DHT22;40888;48.148;11.526;2023-06-05T07:21:57;18.50;99.90
22956;DHT22;40888;48.148;11.526;2023-06-05T07:24:24;18.50;99.90
22956;DHT22;40888;48.148;11.526;2023-06-05T07:26:55;18.60;99.90
22956;DHT22;40888;48.148;11.526;2023-06-05T07:29:24;18.60;99.90
22956;DHT22;40888;48.148;11.526;2023-06-05T07:31:51;18.80;99.90
22956;DHT22;40888;48.148;11.526;2023-06-05T07:34:18;18.80;99.90
22956;DHT22;40888;48.148;11.526;2023-06-05T07:36:45;18.90;99.90
22956;DHT22;40888;48.148;11.526;2023-06-05T07:39:11;18.80;99.90
22956;DHT22;40888;48.148;11.526;2023-06-05T07:41:38;18.80;99.90
22956;DHT22;40888;48.148;11.526;2023-06-05T07:44:09;18.90;99.90
22956;DHT22;40888;48.148;11.526;2023-06-05T07:46:35;19.00;99.90
22956;DHT22;40888;48.148;11.526;2023-06-05T07:49:00;19.30;99.90
22956;DHT22;40888;48.148;11.526;2023-06-05T07:51:26;19.40;99.90
22956;DHT22;40888;48.148;11.526;2023-06-05T07:53:52;19.50;99.90
22956;DHT22;40888;48.148;11.526;2023-06-05T07:56:18;19.60;99.90
22956;DHT22;40888;48.148;11.526;2023-06-05T07:58:43;19.60;99.90
22956;DHT22;40888;48.148;11.526;2023-06-05T08:01:10;19.70;99.90
22956;DHT22;40888;48.148;11.526;2023-06-05T08:03:37;19.70;99.90
22956;DHT22;40888;48.148;11.526;2023-06-05T08:06:03;19.80;99.90
22956;DHT22;40888;48.148;11.526;2023-06-05T08:08:29;19.60;99.90
22956;DHT22;40888;48.148;11.526;2023-06-05T08:10:55;19.70;99.90
22956;DHT22;40888;48.148;11.526;2023-06-05T08:13:21;19.70;99.90
22956;DHT22;40888;48.148;11.526;2023-06-05T08:15:47;19.90;99.90
22956;DHT22;40888;48.148;11.526;2023-06-05T08:18:14;19.80;99.90
22956;DHT22;40888;48.148;11.526;2023-06-05T08:20:40;19.80;99.90
22956;DHT22;40888;48.148;11.526;2023-06-05T08:23:06;20.00;99.90
22956;DHT22;40888;48.148;11.526;2023-06-05T08:25:32;20.20;99.90
22956;DHT22;40888;48.148;11.526;2023-06-05T08:27:57;20.20;99.90
22956;DHT22;40888;48.148;11.526;2023-06-05T08:30:23;20.30;99.90
22956;DHT22;40888;48.148;11.526;2023-06-05T08:32:49;20.40;99.90
22956;DHT22;40888;48.148;11.526;2023-06-05T08:35:15;20.30;99.90
22956;DHT22;40888;48.148;11.526;2023-06-05T08:37:40;20.30;99.90
22956;DHT22;40888;48.148;11.526;2023-06-05T08:40:07;20.50;99.90
22956;DHT22;40888;48.148;11.526;2023-06-05T08:42:36;20.60;99.90
22956;DHT22;40888;48.148;11.526;2023-06-05T08:45:12;20.40;99.90
22956;DHT22;40888;48.148;11.526;2023-06-05T08:47:38;20.80;99.90
22956;DHT22;40888;48.148;11.526;2023-06-05T08:50:07;20.90;98.80
22956;DHT22;40888;48.148;11.526;2023-06-05T08:52:35;20.90;99.90
22956;DHT22;40888;48.148;11.526;2023-06-05T08:55:06;20.80;99.90
22956;DHT22;40888;48.148;11.526;2023-06-05T08:57:38;21.00;99.90
22956;DHT22;40888;48.148;11.526;2023-06-05T09:00:06;21.10;99.90
22956;DHT22;40888;48.148;11.526;2023-06-05T09:02:37;21.10;95.30
22956;DHT22;40888;48.148;11.526;2023-06-05T09:05:04;21.30;93.10
22956;DHT22;40888;48.148;11.526;2023-06-05T09:07:30;21.30;94.10
22956;DHT22;40888;48.148;11.526;2023-06-05T09:09:57;21.20;96.50
22956;DHT22;40888;48.148;11.526;2023-06-05T09:12:23;21.20;97.00
22956;DHT22;40888;48.148;11.526;2023-06-05T09:14:51;21.10;92.20
22956;DHT22;40888;48.148;11.526;2023-06-05T09:17:17;21.10;92.20
22956;DHT22;40888;48.148;11.526;2023-06-05T09:19:43;21.30;91.80
22956;DHT22;40888;48.148;11.526;2023-06-05T09:22:11;21.20;93.20
22956;DHT22;40888;48.148;11.526;2023-06-05T09:24:39;21.30;95.90
22956;DHT22;40888;48.148;11.526;2023-06-05T09:27:10;21.40;95.80
22956;DHT22;40888;48.148;11.526;2023-06-05T09:29:41;21.80;91.20
22956;DHT22;40888;48.148;11.526;2023-06-05T09:32:16;21.70;88.00
22956;DHT22;40888;48.148;11.526;2023-06-05T09:34:43;21.80;85.50
22956;DHT22;40888;48.148;11.526;2023-06-05T09:37:12;21.70;79.70
22956;DHT22;40888;48.148;11.526;2023-06-05T09:39:39;21.80;83.10
22956;DHT22;40888;48.148;11.526;2023-06-05T09:42:06;21.90;81.00
22956;DHT22;40888;48.148;11.526;2023-06-05T09:44:33;21.80;83.70
22956;DHT22;40888;48.148;11.526;2023-06-05T09:47:03;21.70;84.00
22956;DHT22;40888;48.148;11.526;2023-06-05T09:49:49;21.90;86.20
22956;DHT22;40888;48.148;11.526;2023-06-05T09:52:15;22.10;82.10
22956;DHT22;40888;48.148;11.526;2023-06-05T09:54:42;22.00;85.20
22956;DHT22;40888;48.148;11.526;2023-06-05T09:57:11;22.00;78.50
22956;DHT22;40888;48.148;11.526;2023-06-05T09:59:53;22.00;75.40
22956;DHT22;40888;48.148;11.526;2023-06-05T10:02:24;22.30;73.80
22956;DHT22;40888;48.148;11.526;2023-06-05T10:04:59;22.30;76.40
22956;DHT22;40888;48.148;11.526;2023-06-05T10:07:25;22.20;75.20
22956;DHT22;40888;48.148;11.526;2023-06-05T10:09:51;22.30;75.40
22956;DHT22;40888;48.148;11.526;2023-06-05T10:12:18;22.40;73.00
22956;DHT22;40888;48.148;11.526;2023-06-05T10:14:45;22.30;75.90
22956;DHT22;40888;48.148;11.526;2023-06-05T10:17:12;22.40;74.70
22956;DHT22;40888;48.148;11.526;2023-06-05T10:19:42;22.40;73.60
22956;DHT22;40888;48.148;11.526;2023-06-05T10:22:10;22.30;72.70
22956;DHT22;40888;48.148;11.526;2023-06-05T10:24:58;22.10;75.70
22956;DHT22;40888;48.148;11.526;2023-06-05T10:27:30;22.30;72.50
22956;DHT22;40888;48.148;11.526;2023-06-05T10:30:13;22.30;73.60
22956;DHT22;40888;48.148;11.526;2023-06-05T10:33:06;22.70;68.00
22956;DHT22;40888;48.148;11.526;2023-06-05T10:35:44;22.90;63.50
22956;DHT22;40888;48.148;11.526;2023-06-05T10:38:21;23.20;62.30
22956;DHT22;40888;48.148;11.526;2023-06-05T10:40:58;23.30;62.70
22956;DHT22;40888;48.148;11.526;2023-06-05T10:43:28;23.40;61.50
22956;DHT22;40888;48.148;11.526;2023-06-05T10:45:56;23.50;62.50
22956;DHT22;40888;48.148;11.526;2023-06-05T10:51:51;23.00;62.10
22956;DHT22;40888;48.148;11.526;2023-06-05T10:59:29;23.10;60.60
22956;DHT22;40888;48.148;11.526;2023-06-05T11:07:19;23.10;60.40
22956;DHT22;40888;48.148;11.526;2023-06-05T11:15:02;23.80;59.00
22956;DHT22;40888;48.148;11.526;2023-06-05T11:17:32;24.00;58.90
22956;DHT22;40888;48.148;11.526;2023-06-05T11:20:02;24.00;59.50
22956;DHT22;40888;48.148;11.526;2023-06-05T11:27:55;24.30;54.90
22956;DHT22;40888;48.148;11.526;2023-06-05T11:30:44;24.20;56.10
22956;DHT22;40888;48.148;11.526;2023-06-05T11:33:18;24.30;56.00
22956;DHT22;40888;48.148;11.526;2023-06-05T11:35:47;24.10;56.70
22956;DHT22;40888;48.148;11.526;2023-06-05T11:38:19;24.20;55.20
22956;DHT22;40888;48.148;11.526;2023-06-05T11:40:45;24.30;53.90
22956;DHT22;40888;48.148;11.526;2023-06-05T11:43:12;24.20;52.60
22956;DHT22;40888;48.148;11.526;2023-06-05T11:45:40;23.90;55.40
22956;DHT22;40888;48.148;11.526;2023-06-05T11:48:10;23.80;56.20
22956;DHT22;40888;48.148;11.526;2023-06-05T11:50:37;24.10;54.80
22956;DHT22;40888;48.148;11.526;2023-06-05T11:53:07;24.40;54.60
22956;DHT22;40888;48.148;11.526;2023-06-05T11:55:33;24.20;56.00
22956;DHT22;40888;48.148;11.526;2023-06-05T11:58:10;24.00;56.20
22956;DHT22;40888;48.148;11.526;2023-06-05T12:00:36;24.10;56.40
22956;DHT22;40888;48.148;11.526;2023-06-05T12:03:02;24.00;56.90
22956;DHT22;40888;48.148;11.526;2023-06-05T12:05:28;24.00;56.10
22956;DHT22;40888;48.148;11.526;2023-06-05T12:07:54;24.20;55.80
22956;DHT22;40888;48.148;11.526;2023-06-05T12:10:33;24.00;56.90
22956;DHT22;40888;48.148;11.526;2023-06-05T12:13:00;24.00;57.90
22956;DHT22;40888;48.148;11.526;2023-06-05T12:15:26;23.70;57.30
22956;DHT22;40888;48.148;11.526;2023-06-05T12:17:55;23.60;58.60
22956;DHT22;40888;48.148;11.526;2023-06-05T12:20:22;23.80;57.70
22956;DHT22;40888;48.148;11.526;2023-06-05T12:22:48;24.00;58.80
22956;DHT22;40888;48.148;11.526;2023-06-05T12:25:21;24.20;56.50
22956;DHT22;40888;48.148;11.526;2023-06-05T12:27:50;24.20;58.50
22956;DHT22;40888;48.148;11.526;2023-06-05T12:30:18;24.10;59.50
22956;DHT22;40888;48.148;11.526;2023-06-05T12:32:45;24.00;58.00
22956;DHT22;40888;48.148;11.526;2023-06-05T12:35:23;24.10;58.90
22956;DHT22;40888;48.148;11.526;2023-06-05T12:37:50;24.10;57.20
22956;DHT22;40888;48.148;11.526;2023-06-05T12:40:17;24.20;56.70
22956;DHT22;40888;48.148;11.526;2023-06-05T12:42:47;24.10;57.20
22956;DHT22;40888;48.148;11.526;2023-06-05T12:45:14;24.10;57.40
22956;DHT22;40888;48.148;11.526;2023-06-05T12:47:40;24.10;58.40
22956;DHT22;40888;48.148;11.526;2023-06-05T12:50:08;24.10;58.20
22956;DHT22;40888;48.148;11.526;2023-06-05T12:52:38;23.60;59.80
22956;DHT22;40888;48.148;11.526;2023-06-05T12:55:04;23.50;60.80
22956;DHT22;40888;48.148;11.526;2023-06-05T12:57:31;23.40;61.70
22956;DHT22;40888;48.148;11.526;2023-06-05T12:59:57;23.40;61.90
22956;DHT22;40888;48.148;11.526;2023-06-05T13:02:24;23.40;60.60
22956;DHT22;40888;48.148;11.526;2023-06-05T13:04:50;23.40;61.20
22956;DHT22;40888;48.148;11.526;2023-06-05T13:07:16;23.30;62.00
22956;DHT22;40888;48.148;11.526;2023-06-05T13:09:44;23.20;63.30
22956;DHT22;40888;48.148;11.526;2023-06-05T13:12:10;23.20;63.90
22956;DHT22;40888;48.148;11.526;2023-06-05T13:14:36;23.10;64.40
22956;DHT22;40888;48.148;11.526;2023-06-05T13:17:01;23.00;65.30
22956;DHT22;40888;48.148;11.526;2023-06-05T13:19:27;22.90;65.90
22956;DHT22;40888;48.148;11.526;2023-06-05T13:21:53;23.10;65.20
22956;DHT22;40888;48.148;11.526;2023-06-05T13:24:19;23.10;65.30
22956;DHT22;40888;48.148;11.526;2023-06-05T13:26:45;23.10;65.80
22956;DHT22;40888;48.148;11.526;2023-06-05T13:29:12;23.10;66.70
22956;DHT22;40888;48.148;11.526;2023-06-05T13:31:39;22.90;68.00
22956;DHT22;40888;48.148;11.526;2023-06-05T13:34:05;22.80;70.10
22956;DHT22;40888;48.148;11.526;2023-06-05T13:36:32;22.80;71.20
22956;DHT22;40888;48.148;11.526;2023-06-05T13:38:59;22.70;70.60
22956;DHT22;40888;48.148;11.526;2023-06-05T13:41:24;22.80;71.70
22956;DHT22;40888;48.148;11.526;2023-06-05T13:43:50;22.80;72.30
22956;DHT22;40888;48.148;11.526;2023-06-05T13:46:16;22.80;71.40
22956;DHT22;40888;48.148;11.526;2023-06-05T13:48:42;22.80;71.60
22956;DHT22;40888;48.148;11.526;2023-06-05T13:51:07;22.70;71.60
22956;DHT22;40888;48.148;11.526;2023-06-05T13:53:33;22.70;71.60
22956;DHT22;40888;48.148;11.526;2023-06-05T13:56:03;22.70;71.80
22956;DHT22;40888;48.148;11.526;2023-06-05T13:58:29;22.80;70.80
22956;DHT22;40888;48.148;11.526;2023-06-05T14:00:55;22.90;70.10
22956;DHT22;40888;48.148;11.526;2023-06-05T14:03:21;23.10;70.90
22956;DHT22;40888;48.148;11.526;2023-06-05T14:05:47;23.20;69.10
22956;DHT22;40888;48.148;11.526;2023-06-05T14:08:13;23.20;68.80
22956;DHT22;40888;48.148;11.526;2023-06-05T14:10:38;23.10;68.40
22956;DHT22;40888;48.148;11.526;2023-06-05T14:13:04;23.00;68.00
22956;DHT22;40888;48.148;11.526;2023-06-05T14:15:32;23.00;68.20
22956;DHT22;40888;48.148;11.526;2023-06-05T14:18:02;23.10;68.00
22956;DHT22;40888;48.148;11.526;2023-06-05T14:20:28;23.10;66.40
22956;DHT22;40888;48.148;11.526;2023-06-05T14:22:56;23.10;64.30
22956;DHT22;40888;48.148;11.526;2023-06-05T14:25:22;23.20;64.50
22956;DHT22;40888;48.148;11.526;2023-06-05T14:27:49;23.30;66.40
22956;DHT22;40888;48.148;11.526;2023-06-05T14:30:15;23.40;64.60
22956;DHT22;40888;48.148;11.526;2023-06-05T14:32:40;23.40;65.40
22956;DHT22;40888;48.148;11.526;2023-06-05T14:35:07;23.40;64.50
22956;DHT22;40888;48.148;11.526;2023-06-05T14:37:33;23.40;65.40
22956;DHT22;40888;48.148;11.526;2023-06-05T14:39:59;23.30;65.60
22956;DHT22;40888;48.148;11.526;2023-06-05T14:42:25;23.50;64.20
22956;DHT22;40888;48.148;11.526;2023-06-05T14:44:50;23.50;63.40
22956;DHT22;40888;48.148;11.526;2023-06-05T14:47:16;23.30;65.10
22956;DHT22;40888;48.148;11.526;2023-06-05T14:49:42;23.60;63.10
22956;DHT22;40888;48.148;11.526;2023-06-05T14:52:08;23.80;63.10
22956;DHT22;40888;48.148;11.526;2023-06-05T14:54:33;23.90;62.70
22956;DHT22;40888;48.148;11.526;2023-06-05T14:56:59;23.90;62.80
22956;DHT22;40888;48.148;11.526;2023-06-05T14:59:25;23.90;62.00
22956;DHT22;40888;48.148;11.526;2023-06-05T15:01:50;24.00;62.80
22956;DHT22;40888;48.148;11.526;2023-06-05T15:04:16;24.10;60.60
22956;DHT22;40888;48.148;11.526;2023-06-05T15:06:42;24.10;60.70
22956;DHT22;40888;48.148;11.526;2023-06-05T15:09:07;24.10;61.60
22956;DHT22;40888;48.148;11.526;2023-06-05T15:11:34;23.90;61.60
22956;DHT22;40888;48.148;11.526;2023-06-05T15:14:00;23.80;60.70
22956;DHT22;40888;48.148;11.526;2023-06-05T15:16:26;23.60;61.60
22956;DHT22;40888;48.148;11.526;2023-06-05T15:18:52;23.40;62.40
22956;DHT22;40888;48.148;11.526;2023-06-05T15:21:17;23.30;63.40
22956;DHT22;40888;48.148;11.526;2023-06-05T15:23:43;23.20;65.30
22956;DHT22;40888;48.148;11.526;2023-06-05T15:26:09;23.10;66.50
22956;DHT22;40888;48.148;11.526;2023-06-05T15:28:35;23.20;67.40
22956;DHT22;40888;48.148;11.526;2023-06-05T15:31:00;23.20;66.60
22956;DHT22;40888;48.148;11.526;2023-06-05T15:33:26;23.10;65.80
22956;DHT22;40888;48.148;11.526;2023-06-05T15:35:52;22.90;66.50
22956;DHT22;40888;48.148;11.526;2023-06-05T15:38:17;23.00;67.70
22956;DHT22;40888;48.148;11.526;2023-06-05T15:40:43;22.90;68.20
22956;DHT22;40888;48.148;11.526;2023-06-05T15:43:10;22.70;70.90